sensor_id;sensor_type;location;lat;lon;timestamp;P1;durP1;ratioP1;P2;durP2;ratioP2
5682;SDS011;2864;49.220;8.654;2023-04-29T00:00:33;6.60;;;5.93;;
5682;SDS011;2864;49.220;8.654;2023-04-29T00:02:59;7.43;;;5.77;;
5682;SDS011;2864;49.220;8.654;2023-04-29T00:05:25;8.60;;;6.43;;
5682;SDS011;2864;49.220;8.654;2023-04-29T00:07:51;9.10;;;6.70;;
5682;SDS011;2864;49.220;8.654;2023-04-29T00:10:17;7.20;;;6.50;;
5682;SDS011;2864;49.220;8.654;2023-04-29T00:12:43;9.27;;;6.50;;
5682;SDS011;2864;49.220;8.654;2023-04-29T00:15:09;9.87;;;6.73;;
5682;SDS011;2864;49.220;8.654;2023-04-29T00:17:35;9.33;;;7.40;;
5682;SDS011;2864;49.220;8.654;2023-04-29T00:20:02;7.53;;;6.70;;
5682;SDS011;2864;49.220;8.654;2023-04-29T00:22:28;11.97;;;7.63;;
5682;SDS011;2864;49.220;8.654;2023-04-29T00:24:54;7.87;;;6.77;;
5682;SDS011;2864;49.220;8.654;2023-04-29T00:27:20;12.30;;;7.50;;
5682;SDS011;2864;49.220;8.654;2023-04-29T00:29:48;8.23;;;7.10;;
5682;SDS011;2864;49.220;8.654;2023-04-29T00:32:14;14.27;;;7.70;;
5682;SDS011;2864;49.220;8.654;2023-04-29T00:34:40;11.60;;;8.33;;
5682;SDS011;2864;49.220;8.654;2023-04-29T00:37:06;9.40;;;8.40;;
5682;SDS011;2864;49.220;8.654;2023-04-29T00:39:32;13.27;;;8.50;;
5682;SDS011;2864;49.220;8.654;2023-04-29T00:41:58;14.17;;;8.80;;
5682;SDS011;2864;49.220;8.654;2023-04-29T00:44:25;11.77;;;8.80;;
5682;SDS011;2864;49.220;8.654;2023-04-29T00:46:51;14.73;;;9.20;;
5682;SDS011;2864;49.220;8.654;2023-04-29T00:49:17;11.53;;;8.00;;
5682;SDS011;2864;49.220;8.654;2023-04-29T00:51:43;12.17;;;9.13;;
5682;SDS011;2864;49.220;8.654;2023-04-29T00:54:09;14.77;;;9.87;;
5682;SDS011;2864;49.220;8.654;2023-04-29T00:56:35;13.93;;;9.70;;
5682;SDS011;2864;49.220;8.654;2023-04-29T00:59:02;15.97;;;10.73;;
5682;SDS011;2864;49.220;8.654;2023-04-29T01:01:29;13.60;;;9.77;;
5682;SDS011;2864;49.220;8.654;2023-04-29T01:03:55;14.83;;;10.47;;
5682;SDS011;2864;49.220;8.654;2023-04-29T01:09:39;14.87;;;11.03;;
5682;SDS011;2864;49.220;8.654;2023-04-29T01:15:01;17.93;;;10.77;;
5682;SDS011;2864;49.220;8.654;2023-04-29T01:17:30;16.07;;;10.30;;
5682;SDS011;2864;49.220;8.654;2023-04-29T01:20:01;13.50;;;11.77;;
5682;SDS011;2864;49.220;8.654;2023-04-29T01:22:27;13.70;;;10.47;;
5682;SDS011;2864;49.220;8.654;2023-04-29T01:24:53;16.77;;;11.10;;
5682;SDS011;2864;49.220;8.654;2023-04-29T01:27:30;20.97;;;12.63;;
5682;SDS011;2864;49.220;8.654;2023-04-29T01:30:04;19.17;;;11.60;;
5682;SDS011;2864;49.220;8.654;2023-04-29T01:32:42;15.80;;;11.37;;
5682;SDS011;2864;49.220;8.654;2023-04-29T01:37:54;18.40;;;12.70;;
5682;SDS011;2864;49.220;8.654;2023-04-29T01:40:42;17.07;;;12.67;;
5682;SDS011;2864;49.220;8.654;2023-04-29T01:43:20;19.50;;;14.30;;
5682;SDS011;2864;49.220;8.654;2023-04-29T01:45:47;22.97;;;14.03;;
5682;SDS011;2864;49.220;8.654;2023-04-29T01:48:14;15.63;;;12.17;;
5682;SDS011;2864;49.220;8.654;2023-04-29T01:50:40;22.20;;;14.90;;
5682;SDS011;2864;49.220;8.654;2023-04-29T01:53:06;17.93;;;12.03;;
5682;SDS011;2864;49.220;8.654;2023-04-29T01:55:32;20.83;;;15.27;;
5682;SDS011;2864;49.220;8.654;2023-04-29T01:57:58;21.27;;;13.83;;
5682;SDS011;2864;49.220;8.654;2023-04-29T02:00:24;17.97;;;13.10;;
5682;SDS011;2864;49.220;8.654;2023-04-29T02:02:50;20.40;;;13.30;;
5682;SDS011;2864;49.220;8.654;2023-04-29T02:05:16;20.63;;;14.23;;
5682;SDS011;2864;49.220;8.654;2023-04-29T02:07:42;17.90;;;13.47;;
5682;SDS011;2864;49.220;8.654;2023-04-29T02:10:08;18.53;;;11.90;;
5682;SDS011;2864;49.220;8.654;2023-04-29T02:12:35;17.77;;;14.03;;
5682;SDS011;2864;49.220;8.654;2023-04-29T02:15:01;19.33;;;13.33;;
5682;SDS011;2864;49.220;8.654;2023-04-29T02:17:27;18.23;;;11.77;;
5682;SDS011;2864;49.220;8.654;2023-04-29T02:19:53;17.20;;;11.87;;
5682;SDS011;2864;49.220;8.654;2023-04-29T02:22:19;19.73;;;11.60;;
5682;SDS011;2864;49.220;8.654;2023-04-29T02:24:46;14.87;;;10.87;;
5682;SDS011;2864;49.220;8.654;2023-04-29T02:27:12;16.97;;;11.30;;
5682;SDS011;2864;49.220;8.654;2023-04-29T02:29:38;18.00;;;11.43;;
5682;SDS011;2864;49.220;8.654;2023-04-29T02:32:04;18.53;;;11.90;;
5682;SDS011;2864;49.220;8.654;2023-04-29T02:34:30;20.97;;;12.13;;
5682;SDS011;2864;49.220;8.654;2023-04-29T02:36:56;19.03;;;12.20;;
5682;SDS011;2864;49.220;8.654;2023-04-29T02:39:25;16.20;;;11.77;;
5682;SDS011;2864;49.220;8.654;2023-04-29T02:41:55;13.73;;;11.00;;
5682;SDS011;2864;49.220;8.654;2023-04-29T02:44:21;25.27;;;11.60;;
5682;SDS011;2864;49.220;8.654;2023-04-29T02:46:47;20.50;;;10.97;;
5682;SDS011;2864;49.220;8.654;2023-04-29T02:49:13;14.60;;;10.97;;
5682;SDS011;2864;49.220;8.654;2023-04-29T02:51:39;14.23;;;10.57;;
5682;SDS011;2864;49.220;8.654;2023-04-29T02:54:06;14.20;;;10.90;;
5682;SDS011;2864;49.220;8.654;2023-04-29T02:56:32;17.20;;;11.43;;
5682;SDS011;2864;49.220;8.654;2023-04-29T02:58:58;16.73;;;11.57;;
5682;SDS011;2864;49.220;8.654;2023-04-29T03:01:24;19.33;;;10.47;;
5682;SDS011;2864;49.220;8.654;2023-04-29T03:03:50;12.27;;;10.30;;
5682;SDS011;2864;49.220;8.654;2023-04-29T03:06:16;13.00;;;9.90;;
5682;SDS011;2864;49.220;8.654;2023-04-29T03:08:42;14.77;;;10.17;;
5682;SDS011;2864;49.220;8.654;2023-04-29T03:11:08;17.20;;;10.63;;
5682;SDS011;2864;49.220;8.654;2023-04-29T03:13:34;18.20;;;10.10;;
5682;SDS011;2864;49.220;8.654;2023-04-29T03:16:01;13.07;;;9.53;;
5682;SDS011;2864;49.220;8.654;2023-04-29T03:18:27;14.57;;;9.73;;
5682;SDS011;2864;49.220;8.654;2023-04-29T03:20:53;18.07;;;10.57;;
5682;SDS011;2864;49.220;8.654;2023-04-29T03:23:19;16.47;;;11.13;;
5682;SDS011;2864;49.220;8.654;2023-04-29T03:25:46;15.50;;;10.40;;
5682;SDS011;2864;49.220;8.654;2023-04-29T03:28:12;19.97;;;14.03;;
5682;SDS011;2864;49.220;8.654;2023-04-29T03:30:39;17.83;;;11.63;;
5682;SDS011;2864;49.220;8.654;2023-04-29T03:33:04;16.77;;;12.50;;
5682;SDS011;2864;49.220;8.654;2023-04-29T03:35:30;20.63;;;12.83;;
5682;SDS011;2864;49.220;8.654;2023-04-29T03:37:57;21.03;;;13.97;;
5682;SDS011;2864;49.220;8.654;2023-04-29T03:40:23;21.07;;;14.10;;
5682;SDS011;2864;49.220;8.654;2023-04-29T03:42:49;18.10;;;12.83;;
5682;SDS011;2864;49.220;8.654;2023-04-29T03:45:15;19.57;;;12.67;;
5682;SDS011;2864;49.220;8.654;2023-04-29T03:47:41;20.40;;;13.73;;
5682;SDS011;2864;49.220;8.654;2023-04-29T03:50:07;18.60;;;13.00;;
5682;SDS011;2864;49.220;8.654;2023-04-29T03:52:33;20.13;;;14.40;;
5682;SDS011;2864;49.220;8.654;2023-04-29T03:55:03;20.50;;;13.83;;
5682;SDS011;2864;49.220;8.654;2023-04-29T03:57:28;20.90;;;14.17;;
5682;SDS011;2864;49.220;8.654;2023-04-29T03:59:55;20.50;;;13.63;;
5682;SDS011;2864;49.220;8.654;2023-04-29T04:02:21;23.27;;;14.07;;
5682;SDS011;2864;49.220;8.654;2023-04-29T04:04:46;19.23;;;13.33;;
5682;SDS011;2864;49.220;8.654;2023-04-29T04:07:12;20.90;;;13.90;;
5682;SDS011;2864;49.220;8.654;2023-04-29T04:09:38;23.77;;;13.73;;
5682;SDS011;2864;49.220;8.654;2023-04-29T04:12:05;19.70;;;12.73;;
5682;SDS011;2864;49.220;8.654;2023-04-29T04:14:30;19.47;;;13.13;;
5682;SDS011;2864;49.220;8.654;2023-04-29T04:16:56;20.37;;;13.23;;
5682;SDS011;2864;49.220;8.654;2023-04-29T04:19:22;20.43;;;13.37;;
5682;SDS011;2864;49.220;8.654;2023-04-29T04:21:48;18.90;;;12.97;;
5682;SDS011;2864;49.220;8.654;2023-04-29T04:24:14;17.73;;;11.17;;
5682;SDS011;2864;49.220;8.654;2023-04-29T04:26:40;14.57;;;10.20;;
5682;SDS011;2864;49.220;8.654;2023-04-29T04:29:06;11.90;;;9.50;;
5682;SDS011;2864;49.220;8.654;2023-04-29T04:31:32;12.77;;;10.10;;
5682;SDS011;2864;49.220;8.654;2023-04-29T04:33:58;13.53;;;9.77;;
5682;SDS011;2864;49.220;8.654;2023-04-29T04:36:25;11.53;;;9.83;;
5682;SDS011;2864;49.220;8.654;2023-04-29T04:38:51;12.40;;;9.07;;
5682;SDS011;2864;49.220;8.654;2023-04-29T04:41:17;12.03;;;9.47;;
5682;SDS011;2864;49.220;8.654;2023-04-29T04:43:43;13.93;;;9.27;;
5682;SDS011;2864;49.220;8.654;2023-04-29T04:46:10;9.83;;;8.57;;
5682;SDS011;2864;49.220;8.654;2023-04-29T04:48:37;9.87;;;8.30;;
5682;SDS011;2864;49.220;8.654;2023-04-29T04:51:06;13.27;;;7.97;;
5682;SDS011;2864;49.220;8.654;2023-04-29T04:53:33;13.60;;;8.43;;
5682;SDS011;2864;49.220;8.654;2023-04-29T04:56:02;11.57;;;8.30;;
5682;SDS011;2864;49.220;8.654;2023-04-29T04:58:28;10.53;;;8.47;;
5682;SDS011;2864;49.220;8.654;2023-04-29T05:00:55;9.30;;;8.23;;
5682;SDS011;2864;49.220;8.654;2023-04-29T05:03:22;10.30;;;8.13;;
5682;SDS011;2864;49.220;8.654;2023-04-29T05:05:57;11.47;;;7.77;;
5682;SDS011;2864;49.220;8.654;2023-04-29T05:08:24;8.30;;;5.93;;
5682;SDS011;2864;49.220;8.654;2023-04-29T05:10:50;6.97;;;5.90;;
5682;SDS011;2864;49.220;8.654;2023-04-29T05:13:16;10.23;;;6.53;;
5682;SDS011;2864;49.220;8.654;2023-04-29T05:15:42;6.97;;;6.27;;
5682;SDS011;2864;49.220;8.654;2023-04-29T05:18:08;8.97;;;6.40;;
5682;SDS011;2864;49.220;8.654;2023-04-29T05:20:34;10.70;;;6.87;;
5682;SDS011;2864;49.220;8.654;2023-04-29T05:23:01;7.20;;;6.50;;
5682;SDS011;2864;49.220;8.654;2023-04-29T05:25:27;10.60;;;6.70;;
5682;SDS011;2864;49.220;8.654;2023-04-29T05:27:53;7.27;;;6.53;;
5682;SDS011;2864;49.220;8.654;2023-04-29T05:30:19;7.70;;;5.70;;
5682;SDS011;2864;49.220;8.654;2023-04-29T05:32:46;6.97;;;5.90;;
5682;SDS011;2864;49.220;8.654;2023-04-29T05:35:13;7.03;;;6.03;;
5682;SDS011;2864;49.220;8.654;2023-04-29T05:37:39;7.03;;;6.00;;
5682;SDS011;2864;49.220;8.654;2023-04-29T05:40:05;6.87;;;6.23;;
5682;SDS011;2864;49.220;8.654;2023-04-29T05:42:32;6.10;;;5.50;;
5682;SDS011;2864;49.220;8.654;2023-04-29T05:44:58;6.43;;;5.70;;
5682;SDS011;2864;49.220;8.654;2023-04-29T05:47:24;5.97;;;5.37;;
5682;SDS011;2864;49.220;8.654;2023-04-29T05:49:50;7.23;;;5.80;;
5682;SDS011;2864;49.220;8.654;2023-04-29T05:52:16;7.03;;;6.00;;
5682;SDS011;2864;49.220;8.654;2023-04-29T05:54:42;6.07;;;5.47;;
5682;SDS011;2864;49.220;8.654;2023-04-29T05:57:08;6.67;;;5.50;;
5682;SDS011;2864;49.220;8.654;2023-04-29T05:59:34;6.37;;;5.77;;
5682;SDS011;2864;49.220;8.654;2023-04-29T06:02:00;7.10;;;5.77;;
5682;SDS011;2864;49.220;8.654;2023-04-29T06:04:27;7.20;;;5.70;;
5682;SDS011;2864;49.220;8.654;2023-04-29T06:06:53;6.83;;;5.43;;
5682;SDS011;2864;49.220;8.654;2023-04-29T06:09:21;7.73;;;5.00;;
5682;SDS011;2864;49.220;8.654;2023-04-29T06:11:49;8.23;;;4.73;;
5682;SDS011;2864;49.220;8.654;2023-04-29T06:14:15;5.33;;;4.40;;
5682;SDS011;2864;49.220;8.654;2023-04-29T06:16:41;4.43;;;4.03;;
5682;SDS011;2864;49.220;8.654;2023-04-29T06:19:07;6.10;;;4.13;;
5682;SDS011;2864;49.220;8.654;2023-04-29T06:21:33;6.83;;;4.60;;
5682;SDS011;2864;49.220;8.654;2023-04-29T06:23:59;5.07;;;4.57;;
5682;SDS011;2864;49.220;8.654;2023-04-29T06:26:25;7.03;;;4.70;;
5682;SDS011;2864;49.220;8.654;2023-04-29T06:28:51;4.60;;;4.20;;
5682;SDS011;2864;49.220;8.654;2023-04-29T06:31:18;4.00;;;3.63;;
5682;SDS011;2864;49.220;8.654;2023-04-29T06:33:44;4.67;;;4.17;;
5682;SDS011;2864;49.220;8.654;2023-04-29T06:36:10;4.40;;;4.00;;
5682;SDS011;2864;49.220;8.654;2023-04-29T06:38:36;4.83;;;3.57;;
5682;SDS011;2864;49.220;8.654;2023-04-29T06:41:02;5.47;;;3.70;;
5682;SDS011;2864;49.220;8.654;2023-04-29T06:43:28;6.93;;;3.27;;
5682;SDS011;2864;49.220;8.654;2023-04-29T06:45:55;3.80;;;3.50;;
5682;SDS011;2864;49.220;8.654;2023-04-29T06:48:21;6.33;;;3.80;;
5682;SDS011;2864;49.220;8.654;2023-04-29T06:50:48;3.47;;;3.17;;
5682;SDS011;2864;49.220;8.654;2023-04-29T06:53:18;3.47;;;3.17;;
5682;SDS011;2864;49.220;8.654;2023-04-29T06:55:44;4.13;;;3.47;;
5682;SDS011;2864;49.220;8.654;2023-04-29T06:58:14;5.97;;;3.23;;
5682;SDS011;2864;49.220;8.654;2023-04-29T07:00:44;4.20;;;3.00;;
5682;SDS011;2864;49.220;8.654;2023-04-29T07:03:10;3.97;;;3.33;;
5682;SDS011;2864;49.220;8.654;2023-04-29T07:05:37;3.63;;;3.33;;
5682;SDS011;2864;49.220;8.654;2023-04-29T07:08:05;4.97;;;3.17;;
5682;SDS011;2864;49.220;8.654;2023-04-29T07:10:31;3.87;;;3.57;;
5682;SDS011;2864;49.220;8.654;2023-04-29T07:12:57;4.37;;;3.17;;
5682;SDS011;2864;49.220;8.654;2023-04-29T07:15:24;4.40;;;3.30;;
5682;SDS011;2864;49.220;8.654;2023-04-29T07:17:50;3.23;;;3.03;;
5682;SDS011;2864;49.220;8.654;2023-04-29T07:20:16;6.83;;;2.80;;
5682;SDS011;2864;49.220;8.654;2023-04-29T07:22:43;3.90;;;3.10;;
5682;SDS011;2864;49.220;8.654;2023-04-29T07:25:09;6.33;;;3.10;;
5682;SDS011;2864;49.220;8.654;2023-04-29T07:27:35;3.80;;;2.93;;
5682;SDS011;2864;49.220;8.654;2023-04-29T07:30:02;3.53;;;3.23;;
5682;SDS011;2864;49.220;8.654;2023-04-29T07:32:28;3.97;;;2.80;;
5682;SDS011;2864;49.220;8.654;2023-04-29T07:34:57;3.43;;;3.00;;
5682;SDS011;2864;49.220;8.654;2023-04-29T07:37:23;6.83;;;3.00;;
5682;SDS011;2864;49.220;8.654;2023-04-29T07:39:49;4.93;;;3.07;;
5682;SDS011;2864;49.220;8.654;2023-04-29T07:42:16;4.60;;;2.83;;
5682;SDS011;2864;49.220;8.654;2023-04-29T07:44:42;5.53;;;2.93;;
5682;SDS011;2864;49.220;8.654;2023-04-29T07:47:09;4.53;;;3.07;;
5682;SDS011;2864;49.220;8.654;2023-04-29T07:49:35;2.87;;;2.67;;
5682;SDS011;2864;49.220;8.654;2023-04-29T07:52:01;3.03;;;2.73;;
5682;SDS011;2864;49.220;8.654;2023-04-29T07:54:27;2.67;;;2.47;;
5682;SDS011;2864;49.220;8.654;2023-04-29T07:56:53;3.20;;;2.90;;
5682;SDS011;2864;49.220;8.654;2023-04-29T07:59:19;3.80;;;3.27;;
5682;SDS011;2864;49.220;8.654;2023-04-29T08:01:45;3.10;;;2.80;;
5682;SDS011;2864;49.220;8.654;2023-04-29T08:04:11;5.20;;;3.00;;
5682;SDS011;2864;49.220;8.654;2023-04-29T08:06:37;3.83;;;2.80;;
5682;SDS011;2864;49.220;8.654;2023-04-29T08:09:05;3.80;;;3.40;;
5682;SDS011;2864;49.220;8.654;2023-04-29T08:11:31;4.10;;;3.00;;
5682;SDS011;2864;49.220;8.654;2023-04-29T08:13:57;4.13;;;3.20;;
5682;SDS011;2864;49.220;8.654;2023-04-29T08:16:24;4.93;;;3.30;;
5682;SDS011;2864;49.220;8.654;2023-04-29T08:18:51;4.17;;;3.53;;
5682;SDS011;2864;49.220;8.654;2023-04-29T08:21:17;4.47;;;3.23;;
5682;SDS011;2864;49.220;8.654;2023-04-29T08:23:46;6.60;;;3.67;;
5682;SDS011;2864;49.220;8.654;2023-04-29T08:26:12;4.33;;;3.70;;
5682;SDS011;2864;49.220;8.654;2023-04-29T08:28:38;5.37;;;4.70;;
5682;SDS011;2864;49.220;8.654;2023-04-29T08:31:04;10.27;;;8.10;;
5682;SDS011;2864;49.220;8.654;2023-04-29T08:33:34;8.60;;;7.67;;
5682;SDS011;2864;49.220;8.654;2023-04-29T08:36:01;10.53;;;8.10;;
5682;SDS011;2864;49.220;8.654;2023-04-29T08:38:30;10.50;;;7.90;;
5682;SDS011;2864;49.220;8.654;2023-04-29T08:40:56;10.43;;;7.37;;
5682;SDS011;2864;49.220;8.654;2023-04-29T08:43:22;11.23;;;8.10;;
5682;SDS011;2864;49.220;8.654;2023-04-29T08:45:49;10.10;;;7.40;;
5682;SDS011;2864;49.220;8.654;2023-04-29T08:48:15;8.60;;;7.17;;
5682;SDS011;2864;49.220;8.654;2023-04-29T08:50:42;11.40;;;6.83;;
5682;SDS011;2864;49.220;8.654;2023-04-29T08:53:08;17.03;;;7.23;;
5682;SDS011;2864;49.220;8.654;2023-04-29T08:55:35;9.57;;;7.30;;
5682;SDS011;2864;49.220;8.654;2023-04-29T08:58:02;9.07;;;7.17;;
5682;SDS011;2864;49.220;8.654;2023-04-29T09:00:29;11.30;;;8.10;;
5682;SDS011;2864;49.220;8.654;2023-04-29T09:02:56;10.23;;;7.50;;
5682;SDS011;2864;49.220;8.654;2023-04-29T09:05:23;10.37;;;7.80;;
5682;SDS011;2864;49.220;8.654;2023-04-29T09:07:50;11.63;;;7.67;;
5682;SDS011;2864;49.220;8.654;2023-04-29T09:10:17;11.53;;;7.90;;
5682;SDS011;2864;49.220;8.654;2023-04-29T09:12:43;11.10;;;9.27;;
5682;SDS011;2864;49.220;8.654;2023-04-29T09:15:10;11.63;;;8.83;;
5682;SDS011;2864;49.220;8.654;2023-04-29T09:17:46;11.57;;;6.83;;
5682;SDS011;2864;49.220;8.654;2023-04-29T09:20:30;10.03;;;7.80;;
5682;SDS011;2864;49.220;8.654;2023-04-29T09:22:57;11.13;;;7.73;;
5682;SDS011;2864;49.220;8.654;2023-04-29T09:25:24;14.43;;;8.43;;
5682;SDS011;2864;49.220;8.654;2023-04-29T09:27:50;12.63;;;7.97;;
5682;SDS011;2864;49.220;8.654;2023-04-29T09:30:16;10.30;;;8.10;;
5682;SDS011;2864;49.220;8.654;2023-04-29T09:32:43;9.60;;;8.03;;
5682;SDS011;2864;49.220;8.654;2023-04-29T09:37:50;10.43;;;7.83;;
5682;SDS011;2864;49.220;8.654;2023-04-29T09:42:54;11.33;;;7.13;;
5682;SDS011;2864;49.220;8.654;2023-04-29T09:45:34;9.13;;;7.40;;
5682;SDS011;2864;49.220;8.654;2023-04-29T09:48:04;7.93;;;6.70;;
5682;SDS011;2864;49.220;8.654;2023-04-29T09:50:31;10.67;;;7.53;;
5682;SDS011;2864;49.220;8.654;2023-04-29T09:52:58;12.87;;;7.60;;
5682;SDS011;2864;49.220;8.654;2023-04-29T09:55:24;9.80;;;7.30;;
5682;SDS011;2864;49.220;8.654;2023-04-29T09:57:53;9.63;;;7.17;;
5682;SDS011;2864;49.220;8.654;2023-04-29T10:00:20;10.57;;;7.73;;
5682;SDS011;2864;49.220;8.654;2023-04-29T10:02:47;10.50;;;7.17;;
5682;SDS011;2864;49.220;8.654;2023-04-29T10:05:14;10.27;;;7.67;;
5682;SDS011;2864;49.220;8.654;2023-04-29T10:07:40;9.70;;;8.00;;
5682;SDS011;2864;49.220;8.654;2023-04-29T10:10:07;11.03;;;8.20;;
5682;SDS011;2864;49.220;8.654;2023-04-29T10:12:34;10.33;;;7.87;;
5682;SDS011;2864;49.220;8.654;2023-04-29T10:17:42;9.43;;;7.50;;
5682;SDS011;2864;49.220;8.654;2023-04-29T10:20:09;10.77;;;7.90;;
5682;SDS011;2864;49.220;8.654;2023-04-29T10:22:45;9.30;;;7.50;;
5682;SDS011;2864;49.220;8.654;2023-04-29T10:25:16;10.90;;;8.10;;
5682;SDS011;2864;49.220;8.654;2023-04-29T10:27:42;8.50;;;7.20;;
5682;SDS011;2864;49.220;8.654;2023-04-29T10:30:13;9.97;;;7.67;;
5682;SDS011;2864;49.220;8.654;2023-04-29T10:32:45;11.17;;;8.43;;
5682;SDS011;2864;49.220;8.654;2023-04-29T10:35:12;9.03;;;7.20;;
5682;SDS011;2864;49.220;8.654;2023-04-29T10:37:43;9.03;;;7.10;;
5682;SDS011;2864;49.220;8.654;2023-04-29T10:40:17;8.83;;;7.13;;
5682;SDS011;2864;49.220;8.654;2023-04-29T10:42:48;9.67;;;7.27;;
5682;SDS011;2864;49.220;8.654;2023-04-29T10:50:38;7.20;;;6.33;;
5682;SDS011;2864;49.220;8.654;2023-04-29T10:53:09;7.80;;;6.70;;
5682;SDS011;2864;49.220;8.654;2023-04-29T10:55:36;8.70;;;6.70;;
5682;SDS011;2864;49.220;8.654;2023-04-29T10:58:02;9.13;;;7.17;;
5682;SDS011;2864;49.220;8.654;2023-04-29T11:00:30;8.67;;;6.60;;
5682;SDS011;2864;49.220;8.654;2023-04-29T11:02:57;8.40;;;6.73;;
5682;SDS011;2864;49.220;8.654;2023-04-29T11:10:40;8.07;;;7.03;;
5682;SDS011;2864;49.220;8.654;2023-04-29T11:13:23;9.03;;;6.70;;
5682;SDS011;2864;49.220;8.654;2023-04-29T11:15:51;7.37;;;6.07;;
5682;SDS011;2864;49.220;8.654;2023-04-29T11:18:17;7.40;;;6.10;;
5682;SDS011;2864;49.220;8.654;2023-04-29T11:23:28;9.20;;;6.50;;
5682;SDS011;2864;49.220;8.654;2023-04-29T11:25:54;7.47;;;5.70;;
5682;SDS011;2864;49.220;8.654;2023-04-29T11:28:24;6.53;;;5.37;;
5682;SDS011;2864;49.220;8.654;2023-04-29T11:30:52;13.87;;;7.93;;
5682;SDS011;2864;49.220;8.654;2023-04-29T11:33:31;9.93;;;6.67;;
5682;SDS011;2864;49.220;8.654;2023-04-29T11:35:57;9.90;;;6.33;;
5682;SDS011;2864;49.220;8.654;2023-04-29T11:38:27;6.43;;;5.03;;
5682;SDS011;2864;49.220;8.654;2023-04-29T11:40:54;6.83;;;5.43;;
5682;SDS011;2864;49.220;8.654;2023-04-29T11:43:30;8.03;;;5.40;;
5682;SDS011;2864;49.220;8.654;2023-04-29T11:45:56;7.67;;;4.80;;
5682;SDS011;2864;49.220;8.654;2023-04-29T11:48:28;6.90;;;5.17;;
5682;SDS011;2864;49.220;8.654;2023-04-29T11:50:58;6.13;;;4.90;;
5682;SDS011;2864;49.220;8.654;2023-04-29T11:53:24;7.97;;;5.80;;
5682;SDS011;2864;49.220;8.654;2023-04-29T11:55:54;8.00;;;6.03;;
5682;SDS011;2864;49.220;8.654;2023-04-29T11:58:24;7.23;;;5.17;;
5682;SDS011;2864;49.220;8.654;2023-04-29T12:00:50;6.30;;;5.47;;
5682;SDS011;2864;49.220;8.654;2023-04-29T12:03:17;6.23;;;5.63;;
5682;SDS011;2864;49.220;8.654;2023-04-29T12:05:50;7.13;;;5.40;;
5682;SDS011;2864;49.220;8.654;2023-04-29T12:08:20;6.97;;;5.73;;
5682;SDS011;2864;49.220;8.654;2023-04-29T12:10:47;6.90;;;5.53;;
5682;SDS011;2864;49.220;8.654;2023-04-29T12:13:13;7.13;;;5.70;;
5682;SDS011;2864;49.220;8.654;2023-04-29T12:15:39;8.30;;;5.27;;
5682;SDS011;2864;49.220;8.654;2023-04-29T12:18:05;9.03;;;5.77;;
5682;SDS011;2864;49.220;8.654;2023-04-29T12:20:32;6.23;;;5.10;;
5682;SDS011;2864;49.220;8.654;2023-04-29T12:23:20;5.40;;;4.50;;
5682;SDS011;2864;49.220;8.654;2023-04-29T12:25:50;5.90;;;5.00;;
5682;SDS011;2864;49.220;8.654;2023-04-29T12:28:17;5.27;;;4.77;;
5682;SDS011;2864;49.220;8.654;2023-04-29T12:30:44;5.93;;;4.73;;
5682;SDS011;2864;49.220;8.654;2023-04-29T12:33:14;5.60;;;4.80;;
5682;SDS011;2864;49.220;8.654;2023-04-29T12:35:40;7.00;;;4.87;;
5682;SDS011;2864;49.220;8.654;2023-04-29T12:38:06;7.13;;;4.83;;
5682;SDS011;2864;49.220;8.654;2023-04-29T12:40:32;6.63;;;4.57;;
5682;SDS011;2864;49.220;8.654;2023-04-29T12:43:05;5.83;;;5.10;;
5682;SDS011;2864;49.220;8.654;2023-04-29T12:45:34;4.60;;;4.10;;
5682;SDS011;2864;49.220;8.654;2023-04-29T12:48:01;5.70;;;4.50;;
5682;SDS011;2864;49.220;8.654;2023-04-29T12:50:34;6.10;;;4.43;;
5682;SDS011;2864;49.220;8.654;2023-04-29T12:53:07;5.87;;;4.97;;
5682;SDS011;2864;49.220;8.654;2023-04-29T12:55:36;6.13;;;5.20;;
5682;SDS011;2864;49.220;8.654;2023-04-29T12:58:03;6.27;;;5.33;;
5682;SDS011;2864;49.220;8.654;2023-04-29T13:00:32;7.37;;;4.70;;
5682;SDS011;2864;49.220;8.654;2023-04-29T13:02:59;8.67;;;5.10;;
5682;SDS011;2864;49.220;8.654;2023-04-29T13:05:25;5.83;;;4.47;;
5682;SDS011;2864;49.220;8.654;2023-04-29T13:07:51;7.57;;;4.50;;
5682;SDS011;2864;49.220;8.654;2023-04-29T13:10:17;4.77;;;4.17;;
5682;SDS011;2864;49.220;8.654;2023-04-29T13:12:43;5.20;;;4.70;;
5682;SDS011;2864;49.220;8.654;2023-04-29T13:15:09;7.33;;;4.70;;
5682;SDS011;2864;49.220;8.654;2023-04-29T13:17:36;8.10;;;6.00;;
5682;SDS011;2864;49.220;8.654;2023-04-29T13:20:03;7.53;;;6.10;;
5682;SDS011;2864;49.220;8.654;2023-04-29T13:22:29;5.80;;;5.10;;
5682;SDS011;2864;49.220;8.654;2023-04-29T13:24:55;6.83;;;5.93;;
5682;SDS011;2864;49.220;8.654;2023-04-29T13:27:21;8.00;;;4.90;;
5682;SDS011;2864;49.220;8.654;2023-04-29T13:29:47;3.63;;;3.30;;
5682;SDS011;2864;49.220;8.654;2023-04-29T13:32:13;3.87;;;3.47;;
5682;SDS011;2864;49.220;8.654;2023-04-29T13:34:40;3.37;;;3.07;;
5682;SDS011;2864;49.220;8.654;2023-04-29T13:37:09;4.33;;;3.33;;
5682;SDS011;2864;49.220;8.654;2023-04-29T13:39:35;5.17;;;3.53;;
5682;SDS011;2864;49.220;8.654;2023-04-29T13:42:01;3.77;;;3.47;;
5682;SDS011;2864;49.220;8.654;2023-04-29T13:44:28;4.20;;;3.80;;
5682;SDS011;2864;49.220;8.654;2023-04-29T13:46:54;3.83;;;3.43;;
5682;SDS011;2864;49.220;8.654;2023-04-29T13:49:20;4.30;;;3.70;;
5682;SDS011;2864;49.220;8.654;2023-04-29T13:51:46;4.33;;;3.40;;
5682;SDS011;2864;49.220;8.654;2023-04-29T13:54:12;7.07;;;3.20;;
5682;SDS011;2864;49.220;8.654;2023-04-29T13:56:38;3.67;;;3.37;;
5682;SDS011;2864;49.220;8.654;2023-04-29T13:59:05;6.00;;;3.27;;
5682;SDS011;2864;49.220;8.654;2023-04-29T14:01:31;3.97;;;3.40;;
5682;SDS011;2864;49.220;8.654;2023-04-29T14:03:57;4.40;;;3.30;;
5682;SDS011;2864;49.220;8.654;2023-04-29T14:06:23;3.80;;;2.90;;
5682;SDS011;2864;49.220;8.654;2023-04-29T14:08:49;7.17;;;3.30;;
5682;SDS011;2864;49.220;8.654;2023-04-29T14:11:15;4.77;;;3.20;;
5682;SDS011;2864;49.220;8.654;2023-04-29T14:13:41;5.70;;;3.10;;
5682;SDS011;2864;49.220;8.654;2023-04-29T14:16:07;3.40;;;3.10;;
5682;SDS011;2864;49.220;8.654;2023-04-29T14:18:33;4.10;;;3.30;;
5682;SDS011;2864;49.220;8.654;2023-04-29T14:20:59;5.33;;;3.77;;
5682;SDS011;2864;49.220;8.654;2023-04-29T14:23:25;4.07;;;3.67;;
5682;SDS011;2864;49.220;8.654;2023-04-29T14:25:51;3.83;;;3.10;;
5682;SDS011;2864;49.220;8.654;2023-04-29T14:28:18;5.90;;;3.53;;
5682;SDS011;2864;49.220;8.654;2023-04-29T14:30:44;3.83;;;3.30;;
5682;SDS011;2864;49.220;8.654;2023-04-29T14:33:09;4.13;;;3.30;;
5682;SDS011;2864;49.220;8.654;2023-04-29T14:35:36;4.03;;;3.60;;
5682;SDS011;2864;49.220;8.654;2023-04-29T14:38:02;3.90;;;3.37;;
5682;SDS011;2864;49.220;8.654;2023-04-29T14:40:28;4.00;;;3.50;;
5682;SDS011;2864;49.220;8.654;2023-04-29T14:42:54;4.10;;;3.60;;
5682;SDS011;2864;49.220;8.654;2023-04-29T14:45:20;5.53;;;3.50;;
5682;SDS011;2864;49.220;8.654;2023-04-29T14:47:46;4.93;;;3.90;;
5682;SDS011;2864;49.220;8.654;2023-04-29T14:50:12;4.17;;;3.37;;
5682;SDS011;2864;49.220;8.654;2023-04-29T14:52:38;4.00;;;3.60;;
5682;SDS011;2864;49.220;8.654;2023-04-29T14:55:04;4.50;;;3.93;;
5682;SDS011;2864;49.220;8.654;2023-04-29T14:57:31;4.93;;;3.57;;
5682;SDS011;2864;49.220;8.654;2023-04-29T14:59:58;3.87;;;3.40;;
5682;SDS011;2864;49.220;8.654;2023-04-29T15:02:25;4.47;;;3.30;;
5682;SDS011;2864;49.220;8.654;2023-04-29T15:04:51;6.37;;;3.50;;
5682;SDS011;2864;49.220;8.654;2023-04-29T15:07:17;4.33;;;3.50;;
5682;SDS011;2864;49.220;8.654;2023-04-29T15:09:44;4.00;;;3.60;;
5682;SDS011;2864;49.220;8.654;2023-04-29T15:12:10;4.47;;;3.47;;
5682;SDS011;2864;49.220;8.654;2023-04-29T15:14:38;3.47;;;3.17;;
5682;SDS011;2864;49.220;8.654;2023-04-29T15:17:04;4.00;;;3.60;;
5682;SDS011;2864;49.220;8.654;2023-04-29T15:19:29;4.03;;;3.63;;
5682;SDS011;2864;49.220;8.654;2023-04-29T15:21:55;4.17;;;3.70;;
5682;SDS011;2864;49.220;8.654;2023-04-29T15:24:21;5.30;;;4.00;;
5682;SDS011;2864;49.220;8.654;2023-04-29T15:26:47;5.10;;;4.03;;
5682;SDS011;2864;49.220;8.654;2023-04-29T15:29:15;4.43;;;4.00;;
5682;SDS011;2864;49.220;8.654;2023-04-29T15:31:41;4.73;;;3.87;;
5682;SDS011;2864;49.220;8.654;2023-04-29T15:34:07;4.57;;;4.17;;
5682;SDS011;2864;49.220;8.654;2023-04-29T15:36:33;5.07;;;4.03;;